createdAt,value
2023-11-05T00:00:17.452Z,66.000000
2023-11-05T00:05:19.948Z,66.000000
2023-11-05T00:10:22.895Z,66.000000
2023-11-05T00:15:25.252Z,66.466667
2023-11-05T00:20:27.634Z,67.000000
2023-11-05T00:25:30.861Z,67.000000
2023-11-05T00:30:33.682Z,67.933333
2023-11-05T00:35:16.131Z,68.000000
2023-11-05T00:40:19.038Z,67.866667
2023-11-05T00:45:21.916Z,66.933333
2023-11-05T00:50:24.865Z,68.285714
2023-11-05T00:55:28.118Z,69.866667
2023-11-05T01:00:30.830Z,71.000000
2023-11-05T01:05:33.412Z,70.933333
2023-11-05T01:10:16.174Z,71.000000
2023-11-05T01:15:19.228Z,71.933333
2023-11-05T01:20:21.961Z,72.000000
2023-11-05T01:25:24.636Z,72.857143
2023-11-05T01:30:27.283Z,73.266667
2023-11-05T01:35:29.801Z,74.000000
2023-11-05T01:40:32.361Z,74.800000
2023-11-05T01:45:34.777Z,76.133333
2023-11-05T01:50:17.488Z,77.000000
2023-11-05T01:55:20.259Z,78.866667
2023-11-05T02:00:22.923Z,80.714286
2023-11-05T02:05:25.697Z,81.800000
2023-11-05T02:10:28.051Z,83.733333
2023-11-05T02:15:32.057Z,84.000000
2023-11-05T02:20:33.370Z,84.133333
2023-11-05T02:25:35.954Z,83.533333
2023-11-05T02:30:18.269Z,80.933333
2023-11-05T02:35:20.749Z,79.133333
2023-11-05T02:40:23.184Z,77.642857
2023-11-05T02:45:25.443Z,77.933333
2023-11-05T02:50:28.122Z,78.600000
2023-11-05T02:55:30.920Z,79.666667
2023-11-05T03:00:35.249Z,81.200000
2023-11-05T03:05:35.716Z,82.200000
2023-11-05T03:10:17.684Z,83.000000
2023-11-05T03:15:20.340Z,83.733333
2023-11-05T03:20:23.940Z,84.000000
2023-11-05T03:25:25.416Z,84.000000
2023-11-05T03:30:28.205Z,84.666667
2023-11-05T03:35:30.928Z,85.000000
2023-11-05T03:40:33.140Z,85.000000
2023-11-05T03:45:35.674Z,85.000000
2023-11-05T03:50:18.125Z,85.000000
2023-11-05T03:55:20.463Z,84.333333
2023-11-05T04:00:23.209Z,84.000000
2023-11-05T04:05:25.717Z,84.000000
2023-11-05T04:10:29.633Z,84.000000
2023-11-05T04:15:31.066Z,84.000000
2023-11-05T04:20:33.480Z,84.000000
2023-11-05T04:25:35.717Z,84.666667
2023-11-05T04:30:17.827Z,85.000000
2023-11-05T04:35:20.279Z,85.466667
2023-11-05T04:40:23.120Z,86.000000
2023-11-05T04:45:25.662Z,86.000000
2023-11-05T04:50:28.143Z,86.000000
2023-11-05T04:55:30.742Z,86.000000
2023-11-05T05:00:33.145Z,86.666667
2023-11-05T05:05:35.677Z,87.000000
2023-11-05T05:10:17.769Z,87.000000
2023-11-05T05:15:19.825Z,87.000000
2023-11-05T05:20:22.475Z,86.714286
2023-11-05T05:25:24.824Z,86.000000
2023-11-05T05:30:27.645Z,86.266667
2023-11-05T05:35:30.318Z,87.000000
2023-11-05T05:40:33.078Z,86.800000
2023-11-05T05:45:35.817Z,85.933333
2023-11-05T05:50:18.306Z,84.866667
2023-11-05T05:55:20.983Z,83.933333
2023-11-05T06:00:23.396Z,84.000000
2023-11-05T06:05:25.976Z,84.466667
2023-11-05T06:10:27.845Z,85.066667
2023-11-05T06:15:30.533Z,86.000000
2023-11-05T06:20:32.667Z,86.000000
2023-11-05T06:25:34.964Z,86.400000
2023-11-05T06:30:17.298Z,87.000000
2023-11-05T06:35:19.792Z,87.000000
2023-11-05T06:40:22.173Z,87.000000
2023-11-05T06:45:24.741Z,87.428571
2023-11-05T06:50:27.182Z,87.466667
2023-11-05T06:55:29.911Z,86.733333
2023-11-05T07:00:32.526Z,85.533333
2023-11-05T07:05:34.983Z,83.600000
2023-11-05T07:10:17.165Z,81.933333
2023-11-05T07:15:19.642Z,81.000000
2023-11-05T07:20:21.741Z,81.000000
2023-11-05T07:25:23.897Z,81.000000
2023-11-05T07:30:26.779Z,81.000000
2023-11-05T07:35:29.598Z,81.000000
2023-11-05T07:40:32.255Z,81.933333
2023-11-05T07:45:34.879Z,82.000000
2023-11-05T07:50:17.014Z,82.000000
2023-11-05T07:55:19.856Z,82.000000
2023-11-05T08:00:22.837Z,81.071429
2023-11-05T08:05:25.754Z,81.000000
2023-11-05T08:10:28.208Z,81.000000
2023-11-05T08:15:30.276Z,80.466667
2023-11-05T08:20:32.643Z,80.000000
2023-11-05T08:25:34.477Z,80.000000
2023-11-05T08:30:16.691Z,80.600000
2023-11-05T08:35:19.662Z,81.600000
2023-11-05T08:40:21.838Z,82.733333
2023-11-05T08:45:24.395Z,85.857143
2023-11-05T08:50:27.147Z,87.533333
2023-11-05T08:55:29.834Z,88.400000
2023-11-05T09:00:31.677Z,89.000000
2023-11-05T09:05:34.044Z,88.266667
2023-11-05T09:10:16.299Z,87.066667
2023-11-05T09:15:18.708Z,86.000000
2023-11-05T09:20:21.214Z,86.000000
2023-11-05T09:25:23.777Z,86.000000
2023-11-05T09:30:26.155Z,86.000000
2023-11-05T09:35:28.230Z,86.000000
2023-11-05T09:40:30.667Z,86.000000
2023-11-05T09:45:32.995Z,86.000000
2023-11-05T09:50:35.605Z,85.133333
2023-11-05T09:55:17.138Z,84.133333
2023-11-05T10:00:19.245Z,84.000000
2023-11-05T10:05:21.316Z,84.266667
2023-11-05T10:10:23.321Z,85.000000
2023-11-05T10:15:25.893Z,85.733333
2023-11-05T10:20:28.652Z,86.000000
2023-11-05T10:25:31.547Z,86.000000
2023-11-05T10:30:33.535Z,86.000000
2023-11-05T10:35:35.738Z,86.000000
2023-11-05T10:40:18.198Z,86.800000
2023-11-05T10:45:20.563Z,87.000000
2023-11-05T10:50:23.391Z,86.571429
2023-11-05T10:55:25.725Z,86.000000
2023-11-05T11:00:27.743Z,86.000000
2023-11-05T11:05:30.541Z,86.333333
2023-11-05T11:10:32.799Z,87.000000
2023-11-05T11:15:35.576Z,87.000000
2023-11-05T11:20:17.236Z,87.000000
2023-11-05T11:25:19.887Z,88.000000
2023-11-05T11:30:22.067Z,88.000000
2023-11-05T11:35:24.746Z,88.000000
2023-11-05T11:40:26.949Z,88.333333
2023-11-05T11:45:29.325Z,89.000000
2023-11-05T11:50:31.900Z,89.000000
2023-11-05T11:55:34.675Z,89.000000
2023-11-05T12:00:16.621Z,89.266667
2023-11-05T12:05:19.186Z,90.000000
2023-11-05T12:10:21.432Z,90.000000
2023-11-05T12:15:23.603Z,90.714286
2023-11-05T12:20:26.017Z,91.000000
2023-11-05T12:25:28.451Z,91.000000
2023-11-05T12:30:30.971Z,91.000000
2023-11-05T12:35:33.198Z,91.000000
2023-11-05T12:40:35.343Z,91.000000
2023-11-05T12:45:17.450Z,91.000000
2023-11-05T12:50:19.416Z,91.000000
2023-11-05T12:55:21.688Z,91.000000
2023-11-05T13:00:24.211Z,91.000000
2023-11-05T13:05:26.937Z,91.000000
2023-11-05T13:10:28.831Z,90.600000
2023-11-05T13:15:32.646Z,90.000000
2023-11-05T13:20:33.799Z,89.333333
2023-11-05T13:25:16.122Z,89.000000
2023-11-05T13:30:18.731Z,89.000000
2023-11-05T13:35:21.398Z,88.533333
2023-11-05T13:40:23.755Z,88.000000
2023-11-05T13:45:26.355Z,88.200000
2023-11-05T13:50:29.264Z,88.866667
2023-11-05T13:55:31.657Z,88.066667
2023-11-05T14:00:34.052Z,88.866667
2023-11-05T14:05:16.518Z,88.666667
2023-11-05T14:10:18.326Z,88.000000
2023-11-05T14:15:21.370Z,87.066667
2023-11-05T14:20:23.731Z,85.857143
2023-11-05T14:25:25.995Z,84.733333
2023-11-05T14:30:28.630Z,85.000000
2023-11-05T14:35:30.982Z,85.000000
2023-11-05T14:40:33.600Z,85.466667
2023-11-05T14:45:35.859Z,86.200000
2023-11-05T14:50:17.567Z,87.000000
2023-11-05T14:55:19.599Z,87.000000
2023-11-05T15:00:21.533Z,86.133333
2023-11-05T15:05:23.619Z,86.000000
2023-11-05T15:10:26.535Z,86.000000
2023-11-05T15:15:28.724Z,86.000000
2023-11-05T15:20:31.214Z,86.000000
2023-11-05T15:25:33.967Z,86.000000
2023-11-05T15:30:15.887Z,85.333333
2023-11-05T15:35:18.357Z,84.266667
2023-11-05T15:40:20.763Z,83.000000
2023-11-05T15:45:22.986Z,83.000000
2023-11-05T15:50:25.320Z,83.000000
2023-11-05T15:55:27.905Z,83.000000
2023-11-05T16:00:30.718Z,82.933333
2023-11-05T16:05:33.160Z,82.000000
2023-11-05T16:10:35.780Z,81.066667
2023-11-05T16:15:17.677Z,81.000000
2023-11-05T16:20:19.949Z,80.133333
2023-11-05T16:25:23.138Z,80.000000
2023-11-05T16:30:25.467Z,80.000000
2023-11-05T16:35:27.664Z,80.200000
2023-11-05T16:40:29.813Z,81.000000
2023-11-05T16:45:32.230Z,80.933333
2023-11-05T16:50:34.535Z,80.933333
2023-11-05T16:55:17.575Z,80.733333
2023-11-05T17:00:19.094Z,81.600000
2023-11-05T17:05:21.511Z,82.266667
2023-11-05T17:10:23.752Z,83.000000
2023-11-05T17:15:26.086Z,82.133333
2023-11-05T17:20:28.150Z,81.466667
2023-11-05T17:25:31.012Z,79.933333
2023-11-05T17:30:33.187Z,78.333333
2023-11-05T17:35:35.609Z,77.200000
2023-11-05T17:40:17.669Z,76.000000
2023-11-05T17:45:20.561Z,76.000000
2023-11-05T17:50:23.219Z,75.500000
2023-11-05T17:55:25.451Z,74.666667
2023-11-05T18:00:28.101Z,74.000000
2023-11-05T18:05:30.574Z,74.000000
2023-11-05T18:10:43.008Z,73.000000
2023-11-05T18:15:34.961Z,71.466667
2023-11-05T18:20:17.341Z,70.933333
2023-11-05T18:25:19.809Z,71.000000
2023-11-05T18:30:22.020Z,70.533333
2023-11-05T18:35:24.176Z,69.214286
2023-11-05T18:40:26.654Z,67.000000
2023-11-05T18:47:23.775Z,65.600000
2023-11-05T18:50:30.991Z,64.933333
2023-11-05T18:55:33.336Z,64.000000
2023-11-05T19:00:35.218Z,62.266667
2023-11-05T19:05:17.116Z,60.000000
2023-11-05T19:10:18.975Z,56.533333
2023-11-05T19:15:21.300Z,54.666667
2023-11-05T19:20:23.590Z,54.428571
2023-11-05T19:25:25.708Z,53.666667
2023-11-05T19:30:27.781Z,50.600000
2023-11-05T19:35:30.085Z,50.933333
2023-11-05T19:40:32.194Z,49.400000
2023-11-05T19:45:35.013Z,48.533333
2023-11-05T19:50:16.867Z,49.000000
2023-11-05T19:55:19.476Z,50.466667
2023-11-05T20:00:22.124Z,50.066667
2023-11-05T20:05:24.519Z,50.000000
2023-11-05T20:10:26.983Z,49.533333
2023-11-05T20:15:29.351Z,49.000000
2023-11-05T20:20:31.258Z,47.666667
2023-11-05T20:25:33.564Z,47.000000
2023-11-05T20:30:35.919Z,46.200000
2023-11-05T20:35:17.830Z,48.000000
2023-11-05T20:40:20.221Z,47.733333
2023-11-05T20:45:22.731Z,47.071429
2023-11-05T20:50:24.904Z,45.533333
2023-11-05T20:55:27.352Z,45.200000
2023-11-05T21:00:29.940Z,45.133333
2023-11-05T21:05:32.229Z,45.866667
2023-11-05T21:10:43.374Z,44.600000
2023-11-05T21:15:16.809Z,43.733333
2023-11-05T21:20:19.259Z,44.333333
2023-11-05T21:25:21.690Z,44.600000
2023-11-05T21:30:23.944Z,45.357143
2023-11-05T21:35:26.290Z,44.333333
2023-11-05T21:40:28.653Z,41.400000
2023-11-05T21:45:31.392Z,41.933333
2023-11-05T21:50:34.134Z,40.666667
2023-11-05T21:55:16.269Z,40.800000
2023-11-05T22:00:18.947Z,39.600000
2023-11-05T22:05:21.327Z,39.600000
2023-11-05T22:10:23.927Z,38.071429
2023-11-05T22:15:26.147Z,38.200000
2023-11-05T22:20:28.810Z,37.666667
2023-11-05T22:25:31.156Z,38.400000
2023-11-05T22:30:33.478Z,37.400000
2023-11-05T22:35:36.282Z,36.533333
2023-11-05T22:40:21.011Z,36.266667
2023-11-05T22:45:20.384Z,35.066667
2023-11-05T22:50:22.246Z,35.928571
2023-11-05T22:55:24.574Z,35.600000
2023-11-05T23:00:27.016Z,36.000000
2023-11-05T23:05:29.107Z,36.066667
2023-11-05T23:10:31.234Z,37.200000
2023-11-05T23:15:34.007Z,37.133333
2023-11-05T23:20:16.289Z,36.200000
2023-11-05T23:25:29.109Z,35.533333
2023-11-05T23:30:21.604Z,35.066667
2023-11-05T23:35:24.166Z,35.785714
2023-11-05T23:40:26.515Z,36.466667
2023-11-05T23:45:28.952Z,36.266667
2023-11-05T23:50:31.511Z,37.333333
2023-11-05T23:55:34.022Z,38.000000
